Últimos sismos

UTC
MagnitudMag. Fecha y hora Epicentro localización: latitud, longitud loc.: lat., long. ProfundidadProf.
4.2 2020-10-26    19:12:06 124 km al SUROESTE de MAPASTEPEC, CHIS: 14.65°, -93.71° 7 km
4.1 2020-10-26    17:13:32 24 km al OESTE de TAPACHULA, CHIS: 14.87°, -92.48° 95 km
3.4 2020-10-26    16:39:24 57 km al SUR de SAN MARCOS, GRO: 16.28°, -99.49° 16 km
4.0 2020-10-26    16:29:12 25 km al SUROESTE de SALINA CRUZ, OAX: 16.07°, -95.40° 64 km
3.3 2020-10-26    16:03:18 11 km al NOROESTE de RIO GRANDE, OAX: 16.09°, -97.51° 16 km
3.1 2020-10-26    15:41:04 33 km al OESTE de CIHUATLAN, JAL: 19.19°, -104.87° 5 km
3.7 2020-10-26    15:07:11 21 km al OESTE de PUERTO ESCONDIDO, OAX: 15.88°, -97.27° 4 km
3.7 2020-10-26    15:00:51 18 km al OESTE de RIO GRANDE, OAX: 16.01°, -97.60° 12 km
3.8 2020-10-26    14:34:15 49 km al SUR de SAN MARCOS, GRO: 16.36°, -99.47° 9 km
3.7 2020-10-26    14:33:24 17 km al OESTE de RIO GRANDE, OAX: 16.00°, -97.59° 13 km
3.5 2020-10-26    13:15:53 12 km al SUROESTE de PINOTEPA NACIONAL, OAX: 16.25°, -98.10° 10 km
3.6 2020-10-26    13:15:32 8 km al SUROESTE de PINOTEPA NACIONAL, OAX: 16.27°, -98.08° 9 km
3.6 2020-10-26    12:49:36 62 km al SURESTE de SALINA CRUZ, OAX: 15.67°, -94.96° 26 km
3.2 2020-10-26    12:18:38 42 km al SUROESTE de SAYULA DE ALEMAN, VER: 17.64°, -95.26° 105 km
3.1 2020-10-26    11:59:16 34 km al SUR de ATOYAC DE ALVAREZ, GRO: 16.90°, -100.45° 8 km
3.6 2020-10-26    11:49:59 30 km al SUROESTE de COYUCA DE BENITEZ, GRO: 16.76°, -100.21° 17 km
3.4 2020-10-26    11:31:15 20 km al OESTE de PUERTO ESCONDIDO, OAX: 15.84°, -97.25° 2 km
3.9 2020-10-26    10:43:59 102 km al SUROESTE de PIJIJIAPAN, CHIS: 14.91°, -93.73° 5 km
3.5 2020-10-26    10:24:11 27 km al NOROESTE de RIO GRANDE, OAX: 16.21°, -97.58° 15 km
3.7 2020-10-26    10:19:57 56 km al NORESTE de MATIAS ROMERO, OAX: 17.15°, -94.60° 131 km
3.5 2020-10-26    10:03:43 85 km al OESTE de CIHUATLAN, JAL: 19.30°, -105.37° 16 km
3.5 2020-10-26    09:57:35 18 km al NORESTE de CRUCECITA, OAX: 15.81°, -95.97° 4 km
3.2 2020-10-26    09:55:35 19 km al SURESTE de RIO GRANDE, OAX: 15.95°, -97.27° 4 km
3.4 2020-10-26    09:53:18 41 km al SUROESTE de CD DE ARMERIA, COL: 18.58°, -104.08° 55 km
3.4 2020-10-26    09:51:05 62 km al NORESTE de MATIAS ROMERO, OAX: 17.16°, -94.55° 71 km
3.5 2020-10-26    08:47:43 31 km al SURESTE de PETATLAN, GRO: 17.32°, -101.08° 16 km
3.2 2020-10-26    08:36:22 12 km al SUROESTE de PINOTEPA NACIONAL, OAX: 16.29°, -98.16° 15 km
3.8 2020-10-26    07:57:06 55 km al ESTE de MATIAS ROMERO, OAX: 16.99°, -94.54° 57 km
3.3 2020-10-26    07:44:42 38 km al OESTE de MIAHUATLAN, OAX: 16.29°, -96.95° 16 km
3.7 2020-10-26    07:18:20 45 km al NOROESTE de MATIAS ROMERO, OAX: 17.24°, -95.23° 117 km
3.3 2020-10-26    07:06:25 32 km al NORESTE de H TLAXIACO, OAX: 17.41°, -97.41° 55 km
3.5 2020-10-26    06:43:10 48 km al NOROESTE de TEHUANTEPEC, OAX: 16.62°, -95.57° 85 km
3.2 2020-10-26    06:38:27 32 km al SUROESTE de SAYULA DE ALEMAN, VER: 17.63°, -95.10° 114 km
3.4 2020-10-26    05:57:50 11 km al SUROESTE de PINOTEPA NACIONAL, OAX: 16.26°, -98.11° 18 km
3.1 2020-10-26    05:57:08 10 km al SUR de PINOTEPA NACIONAL, OAX: 16.25°, -98.03° 10 km
3.4 2020-10-26    05:28:27 15 km al SUROESTE de PINOTEPA NACIONAL, OAX: 16.21°, -98.11° 6 km
3.7 2020-10-26    05:17:45 144 km al SUROESTE de PIJIJIAPAN, CHIS: 14.74°, -94.13° 8 km
3.3 2020-10-26    05:10:30 63 km al OESTE de CIHUATLAN, JAL: 19.29°, -105.16° 9 km
3.5 2020-10-26    05:09:02 51 km al SUROESTE de SAN MARCOS, GRO: 16.36°, -99.56° 10 km
3.7 2020-10-26    05:07:07 54 km al SURESTE de CRUCECITA, OAX: 15.40°, -95.81° 14 km
3.7 2020-10-26    04:58:46 24 km al OESTE de RIO GRANDE, OAX: 16.05°, -97.66° 13 km
3.9 2020-10-26    04:55:39 117 km al SURESTE de SALINA CRUZ, OAX: 15.25°, -94.68° 17 km
3.4 2020-10-26    04:23:36 28 km al SUROESTE de OMETEPEC, GRO: 16.58°, -98.65° 32 km
4.1 2020-10-26    04:21:17 21 km al NORESTE de PUERTO ESCONDIDO, OAX: 15.98°, -96.91° 12 km
3.8 2020-10-26    04:07:05 18 km al OESTE de SALINA CRUZ, OAX: 16.17°, -95.37° 29 km
3.4 2020-10-26    04:03:02 60 km al SUROESTE de OMETEPEC, GRO: 16.25°, -98.74° 16 km
4.0 2020-10-26    04:01:10 25 km al NOROESTE de LA MIRA, MICH: 18.25°, -102.40° 5 km
3.7 2020-10-26    03:23:12 32 km al NORESTE de MATIAS ROMERO, OAX: 17.14°, -94.93° 60 km
3.8 2020-10-26    03:12:00 122 km al NORESTE de SAN JOSE DEL CABO, BCS: 23.85°, -108.87° 16 km
3.5 2020-10-26    02:52:35 31 km al ESTE de UNION HIDALGO, OAX: 16.49°, -94.54° 13 km
3.4 2020-10-26    02:49:18 6 km al NORESTE de S BLAS ATEMPA, OAX: 16.37°, -95.20° 12 km
4.0 2020-10-26    02:44:34 42 km al SUR de JALTIPAN DE MORELOS, VER: 17.59°, -94.65° 160 km
3.9 2020-10-26    02:03:22 133 km al SURESTE de SALINA CRUZ, OAX: 15.13°, -94.60° 17 km
3.7 2020-10-26    01:28:48 6 km al SURESTE de JUCHITAN DE ZARAGOZA, OAX: 16.39°, -94.98° 14 km
3.5 2020-10-26    01:13:59 25 km al NOROESTE de PINOTEPA NACIONAL, OAX: 16.47°, -98.25° 27 km

Sismo de magnitud menor de 4.0

Sismo de magnitud entre 4.0 y 5.9

Sismo de magnitud igual o mayor de 6.0

Si deseas más información,
consulta nuestro

Catálogo de sismos